Anamur, Turkey
Current Conditions -  °F | °C
As of 9:50 AM on Tuesday 21 Oct 2014 (Local Time) from LTFG Reporting Station
Clear Clear  
Wind Chill: 73°   Ceiling: Unl
Heat Index: 73°   Visibility: 6mi
Dew Point: 48°   Wind: 2mph
Humidity: 41%   Direction: 120°ESE
Pressure: 29.94"   Gusts: NA
Location:  36.08°N, 32.84°E
Report Text: LTFG 210650Z 12002KT CAVOK 23/09 Q1014
Loading
Personal Weather Stations






























Interactive Weather Map
Tropical Storm Tracking
New forecast layout! Learn more

10-Day Weather Forecast

Advertisements
Track Severe Weather on mobile